createdAt,value
2022-12-09T00:07:20.229Z,99.90
2022-12-09T00:17:08.872Z,99.90
2022-12-09T00:19:35.880Z,99.90
2022-12-09T00:24:30.219Z,99.90
2022-12-09T00:26:57.597Z,99.90
2022-12-09T00:29:24.543Z,99.90
2022-12-09T00:39:13.882Z,99.90
2022-12-09T00:41:40.792Z,99.90
2022-12-09T00:46:35.396Z,99.90
2022-12-09T00:49:04.528Z,99.90
2022-12-09T00:51:31.639Z,99.90
2022-12-09T00:53:58.624Z,99.90
2022-12-09T00:56:28.501Z,99.90
2022-12-09T00:58:57.412Z,99.90
2022-12-09T01:01:24.679Z,99.90
2022-12-09T01:06:22.082Z,99.90
2022-12-09T01:11:19.413Z,99.90
2022-12-09T01:13:47.120Z,99.90
2022-12-09T01:16:24.857Z,99.90
2022-12-09T01:18:54.098Z,99.90
2022-12-09T01:21:21.294Z,99.90
2022-12-09T01:23:48.172Z,99.90
2022-12-09T01:31:12.646Z,99.90
2022-12-09T01:33:40.841Z,99.90
2022-12-09T01:36:10.735Z,99.90
2022-12-09T01:41:05.374Z,99.90
2022-12-09T01:46:00.012Z,99.90
2022-12-09T01:48:37.586Z,99.90
2022-12-09T01:51:19.641Z,99.90
2022-12-09T01:53:50.164Z,99.90
2022-12-09T01:56:22.431Z,99.90
2022-12-09T02:01:18.122Z,99.90
2022-12-09T02:03:45.777Z,99.90
2022-12-09T02:08:41.063Z,99.90
2022-12-09T02:11:14.274Z,99.90
2022-12-09T02:13:41.359Z,99.90
2022-12-09T02:16:14.249Z,99.90
2022-12-09T02:18:54.734Z,99.90
2022-12-09T02:21:36.952Z,99.90
2022-12-09T02:24:09.160Z,99.90
2022-12-09T02:27:14.656Z,99.90
2022-12-09T02:29:47.228Z,99.90
2022-12-09T02:32:56.293Z,99.90
2022-12-09T02:35:32.185Z,99.90
2022-12-09T02:38:12.398Z,99.90
2022-12-09T02:40:57.378Z,99.90
2022-12-09T02:43:29.073Z,99.90
2022-12-09T02:45:58.560Z,99.90
2022-12-09T02:48:33.260Z,99.90
2022-12-09T02:51:03.868Z,99.90
2022-12-09T02:53:32.279Z,99.90
2022-12-09T02:55:59.949Z,99.90
2022-12-09T03:00:56.719Z,99.90
2022-12-09T03:03:25.227Z,99.90
2022-12-09T03:06:07.206Z,99.90
2022-12-09T03:08:49.064Z,99.90
2022-12-09T03:11:18.752Z,99.90
2022-12-09T03:13:57.179Z,99.90
2022-12-09T03:16:35.742Z,99.90
2022-12-09T03:19:05.566Z,99.90
2022-12-09T03:21:38.280Z,99.90
2022-12-09T03:24:08.608Z,99.90
2022-12-09T03:26:38.912Z,99.90
2022-12-09T03:29:17.898Z,99.90
2022-12-09T03:31:47.218Z,99.90
2022-12-09T03:34:17.646Z,99.90
2022-12-09T03:36:48.135Z,99.90
2022-12-09T03:39:19.111Z,99.90
2022-12-09T03:41:52.309Z,99.90
2022-12-09T03:44:47.607Z,99.90
2022-12-09T03:47:14.787Z,99.90
2022-12-09T03:52:28.860Z,99.90
2022-12-09T03:55:01.086Z,99.90
2022-12-09T03:57:29.201Z,99.90
2022-12-09T04:00:02.177Z,99.90
2022-12-09T04:07:24.949Z,99.90
2022-12-09T04:22:09.576Z,99.90
2022-12-09T04:24:36.901Z,99.90
2022-12-09T04:27:04.218Z,99.90
2022-12-09T04:34:25.908Z,99.90
2022-12-09T04:36:52.860Z,99.90
2022-12-09T04:39:19.831Z,99.90
2022-12-09T04:49:09.040Z,99.90
2022-12-09T04:54:11.156Z,99.90
2022-12-09T04:56:38.251Z,99.90
2022-12-09T04:59:06.320Z,99.90
2022-12-09T05:11:25.846Z,99.90
2022-12-09T05:13:56.654Z,99.90
2022-12-09T05:16:24.102Z,99.90
2022-12-09T05:21:20.807Z,99.90
2022-12-09T05:23:49.507Z,99.90
2022-12-09T05:26:19.574Z,99.90
2022-12-09T05:28:47.525Z,99.90
2022-12-09T05:31:18.051Z,99.90
2022-12-09T05:33:46.875Z,99.90
2022-12-09T05:36:16.283Z,99.90
2022-12-09T05:38:43.799Z,99.90
2022-12-09T05:46:07.045Z,99.90
2022-12-09T05:51:08.029Z,99.90
2022-12-09T05:53:35.338Z,99.90
2022-12-09T05:58:30.296Z,99.90
2022-12-09T06:01:04.928Z,99.90
2022-12-09T06:03:32.247Z,99.90
2022-12-09T06:05:59.875Z,99.90
2022-12-09T06:08:28.984Z,99.90
2022-12-09T06:10:56.045Z,99.90
2022-12-09T06:13:23.536Z,99.90
2022-12-09T06:15:50.535Z,99.90
2022-12-09T06:18:18.001Z,99.90
2022-12-09T06:20:45.032Z,99.90
2022-12-09T06:23:12.029Z,99.90
2022-12-09T06:25:45.220Z,99.90
2022-12-09T06:28:13.076Z,99.90
2022-12-09T06:30:40.124Z,99.90
2022-12-09T06:33:23.126Z,99.90
2022-12-09T06:35:54.954Z,99.90
2022-12-09T06:38:22.022Z,99.90
2022-12-09T06:40:49.221Z,99.90
2022-12-09T06:43:16.352Z,99.90
2022-12-09T06:45:43.476Z,99.90
2022-12-09T06:48:10.871Z,99.90
2022-12-09T06:50:38.621Z,99.90
2022-12-09T06:53:05.609Z,99.90
2022-12-09T06:55:32.504Z,99.90
2022-12-09T06:57:59.977Z,99.90
2022-12-09T07:00:27.045Z,99.90
2022-12-09T07:02:54.775Z,99.90
2022-12-09T07:05:23.206Z,99.90
2022-12-09T07:07:52.177Z,99.90
2022-12-09T07:10:20.687Z,99.90
2022-12-09T07:12:47.740Z,99.90
2022-12-09T07:15:15.252Z,99.90
2022-12-09T07:17:42.492Z,99.90
2022-12-09T07:20:10.318Z,99.90
2022-12-09T07:22:37.827Z,99.90
2022-12-09T07:25:05.954Z,99.90
2022-12-09T07:27:33.328Z,99.90
2022-12-09T07:30:00.494Z,99.90
2022-12-09T07:32:28.142Z,99.90
2022-12-09T07:34:55.683Z,99.90
2022-12-09T07:37:22.631Z,99.90
2022-12-09T07:39:49.655Z,99.90
2022-12-09T07:42:16.820Z,99.90
2022-12-09T07:44:43.788Z,99.90
2022-12-09T07:47:10.950Z,99.90
2022-12-09T07:49:38.250Z,99.90
2022-12-09T07:52:05.691Z,99.90
2022-12-09T07:54:32.717Z,99.90
2022-12-09T07:56:59.784Z,99.90
2022-12-09T07:59:27.131Z,99.90
2022-12-09T08:01:54.264Z,99.90
2022-12-09T08:04:21.784Z,99.90
2022-12-09T08:06:49.277Z,99.90
2022-12-09T08:09:16.683Z,99.90
2022-12-09T08:11:44.324Z,99.90
2022-12-09T08:14:13.046Z,99.90
2022-12-09T08:16:42.008Z,99.90
2022-12-09T08:19:10.200Z,99.90
2022-12-09T08:21:37.748Z,99.90
2022-12-09T08:24:07.785Z,99.90
2022-12-09T08:26:37.518Z,99.90
2022-12-09T08:29:08.166Z,99.90
2022-12-09T08:31:40.590Z,99.90
2022-12-09T08:34:08.894Z,99.90
2022-12-09T08:36:37.138Z,99.90
2022-12-09T08:39:05.324Z,99.90
2022-12-09T08:41:39.082Z,99.90
2022-12-09T08:44:12.161Z,99.90
2022-12-09T08:46:43.597Z,99.90
2022-12-09T08:49:11.350Z,99.90
2022-12-09T08:51:39.671Z,99.90
2022-12-09T08:54:07.052Z,99.90
2022-12-09T08:56:34.467Z,99.90
2022-12-09T09:01:35.914Z,99.90
2022-12-09T09:04:06.453Z,99.90
2022-12-09T09:06:34.217Z,99.90
2022-12-09T09:09:01.953Z,99.90
2022-12-09T09:13:57.035Z,99.90
2022-12-09T09:16:25.855Z,99.90
2022-12-09T09:18:53.588Z,99.90
2022-12-09T09:21:24.175Z,99.90
2022-12-09T09:23:51.936Z,99.90
2022-12-09T09:26:22.056Z,99.90
2022-12-09T09:28:50.295Z,99.90
2022-12-09T09:31:20.402Z,99.90
2022-12-09T09:33:54.912Z,99.90
2022-12-09T09:36:24.907Z,99.90
2022-12-09T09:38:54.140Z,97.10
2022-12-09T09:41:38.020Z,95.50
2022-12-09T09:44:32.423Z,95.90
2022-12-09T09:47:01.994Z,94.10
2022-12-09T09:49:53.394Z,93.10
2022-12-09T09:52:23.494Z,92.30
2022-12-09T09:54:51.971Z,92.00
2022-12-09T09:57:24.906Z,90.20
2022-12-09T10:00:08.396Z,84.90
2022-12-09T10:03:15.314Z,82.40
2022-12-09T10:05:58.680Z,82.00
2022-12-09T10:08:32.916Z,84.30
2022-12-09T10:11:11.912Z,84.50
2022-12-09T10:13:48.405Z,80.80
2022-12-09T10:16:23.998Z,79.50
2022-12-09T10:19:19.031Z,80.70
2022-12-09T10:21:48.877Z,81.60
2022-12-09T10:24:39.203Z,81.50
2022-12-09T10:27:16.596Z,81.70
2022-12-09T10:30:18.569Z,79.80
2022-12-09T10:32:46.649Z,82.20
2022-12-09T10:35:25.762Z,86.90
2022-12-09T10:37:55.632Z,87.80
2022-12-09T10:40:30.306Z,91.40
2022-12-09T10:43:18.342Z,92.60
2022-12-09T10:48:49.421Z,94.00
2022-12-09T10:51:22.078Z,95.20
2022-12-09T10:54:21.779Z,95.10
2022-12-09T10:57:07.282Z,95.50
2022-12-09T10:59:35.389Z,95.10
2022-12-09T11:02:10.159Z,94.60
2022-12-09T11:04:42.223Z,94.40
2022-12-09T11:07:18.278Z,95.60
2022-12-09T11:09:56.480Z,94.80
2022-12-09T11:12:38.570Z,94.10
2022-12-09T11:15:32.494Z,93.40
2022-12-09T11:18:16.736Z,93.20
2022-12-09T11:20:56.072Z,92.60
2022-12-09T11:23:23.120Z,93.00
2022-12-09T11:26:00.665Z,92.50
2022-12-09T11:28:36.851Z,92.10
2022-12-09T11:33:57.242Z,89.00
2022-12-09T11:36:36.850Z,87.90
2022-12-09T11:39:16.308Z,88.90
2022-12-09T11:42:12.956Z,87.70
2022-12-09T11:45:16.217Z,87.90
2022-12-09T11:50:37.448Z,82.50
2022-12-09T11:53:13.271Z,82.40
2022-12-09T11:56:05.568Z,80.80
2022-12-09T11:58:49.499Z,78.10
2022-12-09T12:01:27.666Z,77.50
2022-12-09T12:04:01.552Z,71.50
2022-12-09T12:06:48.315Z,74.40
2022-12-09T12:09:21.525Z,73.50
2022-12-09T12:11:52.916Z,75.60
2022-12-09T12:14:25.766Z,72.60
2022-12-09T12:17:17.268Z,73.50
2022-12-09T12:19:49.356Z,74.20
2022-12-09T12:22:22.263Z,71.90
2022-12-09T12:25:17.690Z,69.30
2022-12-09T12:28:07.991Z,73.30
2022-12-09T12:30:56.010Z,74.60
2022-12-09T12:36:28.711Z,74.90
2022-12-09T12:39:20.923Z,77.20
2022-12-09T12:41:57.656Z,78.50
2022-12-09T12:45:14.037Z,78.20
2022-12-09T12:47:47.027Z,76.40
2022-12-09T12:50:43.912Z,78.30
2022-12-09T12:53:20.981Z,80.20
2022-12-09T12:55:50.178Z,79.80
2022-12-09T12:58:41.263Z,80.70
2022-12-09T13:01:31.328Z,82.20
2022-12-09T13:04:13.977Z,80.20
2022-12-09T13:06:49.443Z,78.40
2022-12-09T13:09:51.169Z,77.00
2022-12-09T13:12:55.528Z,76.90
2022-12-09T13:15:39.003Z,79.80
2022-12-09T13:18:24.791Z,78.40
2022-12-09T13:20:59.868Z,81.20
2022-12-09T13:23:40.820Z,83.10
2022-12-09T13:26:35.393Z,82.30
2022-12-09T13:29:02.229Z,82.60
2022-12-09T13:31:31.188Z,84.50
2022-12-09T13:34:22.668Z,88.00
2022-12-09T13:36:49.780Z,89.60
2022-12-09T13:39:42.688Z,90.60
2022-12-09T13:42:47.431Z,91.30
2022-12-09T13:45:25.429Z,92.10
2022-12-09T13:47:53.431Z,93.10
2022-12-09T13:50:43.519Z,93.60
2022-12-09T13:53:19.401Z,93.80
2022-12-09T13:55:54.221Z,94.40
2022-12-09T13:58:53.471Z,94.30
2022-12-09T14:01:43.819Z,95.00
2022-12-09T14:04:16.022Z,94.70
2022-12-09T14:06:45.763Z,94.60
2022-12-09T14:09:37.183Z,95.30
2022-12-09T14:12:11.736Z,95.10
2022-12-09T14:14:48.672Z,96.20
2022-12-09T14:17:41.256Z,95.80
2022-12-09T14:20:29.968Z,95.80
2022-12-09T14:23:02.515Z,96.40
2022-12-09T14:25:29.369Z,96.00
2022-12-09T14:28:25.411Z,95.90
2022-12-09T14:30:59.757Z,95.80
2022-12-09T14:33:34.320Z,95.90
2022-12-09T14:36:27.719Z,96.40
2022-12-09T14:39:24.957Z,96.10
2022-12-09T14:42:01.469Z,96.20
2022-12-09T14:44:43.906Z,96.20
2022-12-09T14:47:27.009Z,96.30
2022-12-09T14:50:03.750Z,96.60
2022-12-09T14:52:32.974Z,97.00
2022-12-09T14:55:06.697Z,97.00
2022-12-09T14:57:41.634Z,97.20
2022-12-09T15:00:35.736Z,97.80
2022-12-09T15:06:00.525Z,98.40
2022-12-09T15:08:28.453Z,98.30
2022-12-09T15:10:55.442Z,98.80
2022-12-09T15:13:24.470Z,99.10
2022-12-09T15:15:52.443Z,99.00
2022-12-09T15:18:23.016Z,99.90
2022-12-09T15:20:57.811Z,99.90
2022-12-09T15:23:30.639Z,99.90
2022-12-09T15:26:04.333Z,99.90
2022-12-09T15:28:33.715Z,99.90
2022-12-09T15:31:15.805Z,99.90
2022-12-09T15:33:45.750Z,99.90
2022-12-09T15:36:21.159Z,99.90
2022-12-09T15:39:07.979Z,99.90
2022-12-09T15:42:02.801Z,99.90
2022-12-09T15:44:56.156Z,99.90
2022-12-09T15:47:57.450Z,99.90
2022-12-09T15:50:28.816Z,99.90
2022-12-09T15:53:06.256Z,99.90
2022-12-09T15:55:50.560Z,99.90
2022-12-09T15:58:24.023Z,99.90
2022-12-09T16:00:53.877Z,99.90
2022-12-09T16:03:30.269Z,99.90
2022-12-09T16:06:01.174Z,99.90
2022-12-09T16:08:35.218Z,99.90
2022-12-09T16:11:02.570Z,99.90
2022-12-09T16:13:29.897Z,99.90
2022-12-09T16:15:59.067Z,99.90
2022-12-09T16:18:28.116Z,99.90
2022-12-09T16:21:14.897Z,99.90
2022-12-09T16:23:44.089Z,99.90
2022-12-09T16:26:30.818Z,99.90
2022-12-09T16:29:01.485Z,99.90
2022-12-09T16:31:29.072Z,99.90
2022-12-09T16:33:56.565Z,99.90
2022-12-09T16:36:31.742Z,99.90
2022-12-09T16:39:07.272Z,99.90
2022-12-09T16:41:52.219Z,99.90
2022-12-09T16:44:21.684Z,99.90
2022-12-09T16:46:48.736Z,99.90
2022-12-09T16:49:15.705Z,99.90
2022-12-09T16:51:42.642Z,99.90
2022-12-09T16:54:20.283Z,99.90
2022-12-09T16:56:48.598Z,99.90
2022-12-09T16:59:15.488Z,99.90
2022-12-09T17:01:42.925Z,99.90
2022-12-09T17:04:17.401Z,99.90
2022-12-09T17:06:44.456Z,99.90
2022-12-09T17:09:14.549Z,99.90
2022-12-09T17:11:46.994Z,99.90
2022-12-09T17:14:16.162Z,99.90
2022-12-09T17:16:43.081Z,99.90
2022-12-09T17:19:09.965Z,99.90
2022-12-09T17:21:36.866Z,99.90
2022-12-09T17:24:04.004Z,99.90
2022-12-09T17:26:30.931Z,99.90
2022-12-09T17:29:01.550Z,99.90
2022-12-09T17:31:29.203Z,99.90
2022-12-09T17:33:57.228Z,99.90
2022-12-09T17:36:24.210Z,99.90
2022-12-09T17:38:51.088Z,99.90
2022-12-09T17:41:23.445Z,99.90
2022-12-09T17:43:50.493Z,99.90
2022-12-09T17:46:17.670Z,99.90
2022-12-09T17:48:44.818Z,99.90
2022-12-09T17:51:18.004Z,99.90
2022-12-09T17:53:45.765Z,99.90
2022-12-09T17:56:18.880Z,99.90
2022-12-09T17:58:46.068Z,99.90
2022-12-09T18:01:15.925Z,99.90
2022-12-09T18:04:01.611Z,99.90
2022-12-09T18:06:34.811Z,99.90
2022-12-09T18:09:04.132Z,99.90
2022-12-09T18:11:31.403Z,99.90
2022-12-09T18:13:58.630Z,99.90
2022-12-09T18:16:26.192Z,99.90
2022-12-09T18:18:53.256Z,99.90
2022-12-09T18:21:20.266Z,99.90
2022-12-09T18:23:48.428Z,99.90
2022-12-09T18:26:17.883Z,99.90
2022-12-09T18:28:45.351Z,99.90
2022-12-09T18:31:19.252Z,99.90
2022-12-09T18:33:46.601Z,99.90
2022-12-09T18:36:15.960Z,99.90
2022-12-09T18:38:43.515Z,99.90
2022-12-09T18:41:16.224Z,99.90
2022-12-09T18:43:44.804Z,99.90
2022-12-09T18:46:21.370Z,99.90
2022-12-09T18:49:17.646Z,99.90
2022-12-09T18:51:45.850Z,99.90
2022-12-09T18:54:18.206Z,99.90
2022-12-09T18:56:45.535Z,99.90
2022-12-09T18:59:12.444Z,99.90
2022-12-09T19:01:45.375Z,99.90
2022-12-09T19:04:24.615Z,99.90
2022-12-09T19:06:54.017Z,99.90
2022-12-09T19:09:23.450Z,99.90
2022-12-09T19:11:52.282Z,99.90
2022-12-09T19:14:21.343Z,99.90
2022-12-09T19:16:49.443Z,99.90
2022-12-09T19:19:22.516Z,99.90
2022-12-09T19:21:49.416Z,99.90
2022-12-09T19:24:18.938Z,99.90
2022-12-09T19:26:46.488Z,99.90
2022-12-09T19:29:14.283Z,99.90
2022-12-09T19:31:44.264Z,99.90
2022-12-09T19:34:13.346Z,99.90
2022-12-09T19:36:40.360Z,99.90
2022-12-09T19:39:08.637Z,99.90
2022-12-09T19:41:36.965Z,99.90
2022-12-09T19:44:04.969Z,99.90
2022-12-09T19:46:33.141Z,99.90
2022-12-09T19:49:00.498Z,99.90
2022-12-09T19:51:28.077Z,99.90
2022-12-09T19:53:56.864Z,99.90
2022-12-09T19:56:24.508Z,99.90
2022-12-09T19:58:52.380Z,99.90
2022-12-09T20:01:28.088Z,99.90
2022-12-09T20:04:13.563Z,99.90
2022-12-09T20:06:48.157Z,99.90
2022-12-09T20:09:19.328Z,99.90
2022-12-09T20:11:46.205Z,99.90
2022-12-09T20:14:14.081Z,99.90
2022-12-09T20:16:41.403Z,99.90
2022-12-09T20:19:08.751Z,99.90
2022-12-09T20:21:37.755Z,99.90
2022-12-09T20:24:05.957Z,99.90
2022-12-09T20:26:34.592Z,99.90
2022-12-09T20:29:04.399Z,99.90
2022-12-09T20:31:33.401Z,99.90
2022-12-09T20:34:04.331Z,99.90
2022-12-09T20:36:35.253Z,99.90
2022-12-09T20:39:05.770Z,99.90
2022-12-09T20:41:34.858Z,99.90
2022-12-09T20:44:01.782Z,99.90
2022-12-09T20:46:31.031Z,99.90
2022-12-09T20:48:59.336Z,99.90
2022-12-09T20:51:30.611Z,99.90
2022-12-09T20:53:58.190Z,99.90
2022-12-09T20:56:26.342Z,99.90
2022-12-09T20:58:54.058Z,99.90
2022-12-09T21:01:23.918Z,99.90
2022-12-09T21:03:52.643Z,99.90
2022-12-09T21:06:22.534Z,99.90
2022-12-09T21:08:49.704Z,99.90
2022-12-09T21:11:19.873Z,99.90
2022-12-09T21:13:49.666Z,99.90
2022-12-09T21:16:20.512Z,99.90
2022-12-09T21:18:49.360Z,99.90
2022-12-09T21:21:17.748Z,99.90
2022-12-09T21:23:44.926Z,99.90
2022-12-09T21:26:15.620Z,99.90
2022-12-09T21:28:43.770Z,99.90
2022-12-09T21:31:16.562Z,99.90
2022-12-09T21:33:44.860Z,99.90
2022-12-09T21:36:17.701Z,99.90
2022-12-09T21:38:44.789Z,99.90
2022-12-09T21:41:15.191Z,99.90
2022-12-09T21:43:43.069Z,99.90
2022-12-09T21:46:17.818Z,99.90
2022-12-09T21:48:50.563Z,99.90
2022-12-09T21:51:19.884Z,99.90
2022-12-09T21:53:47.392Z,99.90
2022-12-09T21:56:25.884Z,99.90
2022-12-09T21:58:55.259Z,99.90
2022-12-09T22:01:26.199Z,99.90
2022-12-09T22:03:53.657Z,99.90
2022-12-09T22:06:21.222Z,99.90
2022-12-09T22:08:48.232Z,99.90
2022-12-09T22:11:18.176Z,99.90
2022-12-09T22:13:45.442Z,99.90
2022-12-09T22:16:18.673Z,99.90
2022-12-09T22:18:46.250Z,99.90
2022-12-09T22:21:26.296Z,99.90
2022-12-09T22:23:55.144Z,99.90
2022-12-09T22:26:22.935Z,99.90
2022-12-09T22:28:50.425Z,99.90
2022-12-09T22:31:22.893Z,99.90
2022-12-09T22:33:51.536Z,99.90
2022-12-09T22:36:19.990Z,99.90
2022-12-09T22:38:47.721Z,99.90
2022-12-09T22:41:21.332Z,99.90
2022-12-09T22:43:49.139Z,99.90
2022-12-09T22:46:20.129Z,99.90
2022-12-09T22:48:47.823Z,99.90
2022-12-09T22:51:20.862Z,99.90
2022-12-09T22:53:51.127Z,99.90
2022-12-09T22:56:18.830Z,99.90
2022-12-09T22:58:46.243Z,99.90
2022-12-09T23:01:26.866Z,99.90
2022-12-09T23:03:58.013Z,99.90
2022-12-09T23:06:26.816Z,99.90
2022-12-09T23:08:54.053Z,99.90
2022-12-09T23:11:23.316Z,99.90
2022-12-09T23:13:50.996Z,99.90
2022-12-09T23:16:20.819Z,99.90
2022-12-09T23:18:48.204Z,99.90
2022-12-09T23:21:24.260Z,99.90
2022-12-09T23:23:56.785Z,99.90
2022-12-09T23:26:28.152Z,99.90
2022-12-09T23:28:58.131Z,99.90
2022-12-09T23:31:27.881Z,99.90
2022-12-09T23:33:55.421Z,99.90
2022-12-09T23:36:25.674Z,99.90
2022-12-09T23:38:53.563Z,99.90
2022-12-09T23:41:22.435Z,99.90
2022-12-09T23:43:50.128Z,99.90
2022-12-09T23:46:19.763Z,99.90
2022-12-09T23:48:48.216Z,99.90
2022-12-09T23:51:27.898Z,99.90
2022-12-09T23:53:57.523Z,99.90
2022-12-09T23:56:26.300Z,99.90
2022-12-09T23:58:56.285Z,99.90
